createdAt,value
2018-08-23T00:01:37.989Z,15.80
2018-08-23T00:04:10.074Z,14.73
2018-08-23T00:06:48.286Z,15.30
2018-08-23T00:09:18.978Z,11.60
2018-08-23T00:11:49.634Z,13.90
2018-08-23T00:14:20.043Z,13.23
2018-08-23T00:16:50.768Z,16.50
2018-08-23T00:19:21.629Z,15.65
2018-08-23T00:21:52.314Z,14.43
2018-08-23T00:24:24.026Z,15.85
2018-08-23T00:26:55.993Z,14.15
2018-08-23T00:29:29.588Z,24.23
2018-08-23T00:32:02.824Z,19.15
2018-08-23T00:34:34.990Z,19.77
2018-08-23T00:37:06.339Z,17.05
2018-08-23T00:39:37.003Z,16.65
2018-08-23T00:42:10.772Z,18.12
2018-08-23T00:44:56.286Z,17.65
2018-08-23T00:47:30.816Z,19.17
2018-08-23T00:50:01.539Z,16.30
2018-08-23T00:52:44.839Z,18.62
2018-08-23T00:55:20.974Z,22.07
2018-08-23T00:57:51.706Z,22.87
2018-08-23T01:00:24.578Z,18.40
2018-08-23T01:03:01.287Z,21.27
2018-08-23T01:05:35.002Z,21.23
2018-08-23T01:08:07.071Z,19.70
2018-08-23T01:10:39.602Z,22.40
2018-08-23T01:13:10.312Z,20.62
2018-08-23T01:15:43.735Z,20.88
2018-08-23T01:18:16.430Z,21.55
2018-08-23T01:20:48.210Z,16.20
2018-08-23T01:23:18.965Z,18.25
2018-08-23T01:25:50.258Z,18.85
2018-08-23T01:28:21.698Z,19.92
2018-08-23T01:30:52.394Z,19.40
2018-08-23T01:33:23.052Z,17.42
2018-08-23T01:35:53.754Z,21.07
2018-08-23T01:38:24.430Z,18.30
2018-08-23T01:40:59.365Z,18.70
2018-08-23T01:43:30.091Z,18.77
2018-08-23T01:46:00.819Z,20.77
2018-08-23T01:48:32.912Z,22.77
2018-08-23T01:51:03.628Z,17.35
2018-08-23T01:53:38.085Z,23.15
2018-08-23T01:56:08.807Z,25.12
2018-08-23T01:58:39.487Z,23.32
2018-08-23T02:01:15.126Z,24.07
2018-08-23T02:03:46.152Z,24.15
2018-08-23T02:06:17.200Z,26.42
2018-08-23T02:08:48.031Z,19.85
2018-08-23T02:11:18.743Z,24.02
2018-08-23T02:13:49.411Z,27.13
2018-08-23T02:16:20.111Z,24.82
2018-08-23T02:18:51.190Z,23.42
2018-08-23T02:21:21.840Z,26.85
2018-08-23T02:23:53.191Z,25.70
2018-08-23T02:26:23.850Z,26.00
2018-08-23T02:28:54.547Z,25.72
2018-08-23T02:31:25.218Z,27.58
2018-08-23T02:33:55.921Z,24.00
2018-08-23T02:36:26.597Z,24.55
2018-08-23T02:38:59.806Z,25.02
2018-08-23T02:41:30.875Z,23.83
2018-08-23T02:44:01.569Z,25.23
2018-08-23T02:46:32.588Z,24.82
2018-08-23T02:49:03.330Z,26.93
2018-08-23T02:51:50.078Z,26.23
2018-08-23T02:54:20.814Z,27.58
2018-08-23T02:56:58.538Z,25.35
2018-08-23T02:59:30.107Z,28.47
2018-08-23T03:02:00.795Z,25.35
2018-08-23T03:04:31.519Z,24.57
2018-08-23T03:07:03.356Z,29.10
2018-08-23T03:09:35.311Z,31.60
2018-08-23T03:12:11.439Z,30.48
2018-08-23T03:14:42.219Z,28.32
2018-08-23T03:17:14.141Z,27.73
2018-08-23T03:19:59.270Z,34.40
2018-08-23T03:22:30.964Z,29.27
2018-08-23T03:25:04.195Z,38.08
2018-08-23T03:27:35.023Z,29.20
2018-08-23T03:30:07.431Z,36.20
2018-08-23T03:32:38.122Z,34.73
2018-08-23T03:35:09.019Z,29.23
2018-08-23T03:37:39.713Z,28.45
2018-08-23T03:40:11.450Z,32.60
2018-08-23T03:42:42.151Z,31.70
2018-08-23T03:45:18.288Z,35.70
2018-08-23T03:47:50.290Z,31.70
2018-08-23T03:50:21.004Z,30.52
2018-08-23T03:52:55.622Z,29.12
2018-08-23T03:55:26.742Z,29.27
2018-08-23T03:58:01.410Z,33.67
2018-08-23T04:00:37.555Z,35.50
2018-08-23T04:03:14.041Z,36.38
2018-08-23T04:05:44.695Z,33.75
2018-08-23T04:08:21.795Z,34.10
2018-08-23T04:10:52.475Z,32.90
2018-08-23T04:13:23.151Z,30.15
2018-08-23T04:15:53.815Z,32.08
2018-08-23T04:18:24.500Z,30.65
2018-08-23T04:20:56.616Z,29.85
2018-08-23T04:23:27.309Z,36.68
2018-08-23T04:25:59.707Z,27.32
2018-08-23T04:28:30.394Z,33.20
2018-08-23T04:31:01.050Z,33.33
2018-08-23T04:33:31.739Z,32.93
2018-08-23T04:36:02.395Z,34.08
2018-08-23T04:38:33.362Z,33.78
2018-08-23T04:41:06.734Z,30.15
2018-08-23T04:43:37.411Z,33.75
2018-08-23T04:46:12.329Z,32.95
2018-08-23T04:48:42.975Z,33.40
2018-08-23T04:51:13.662Z,34.80
2018-08-23T04:53:44.678Z,32.67
2018-08-23T04:56:15.419Z,33.92
2018-08-23T04:58:46.267Z,31.25
2018-08-23T05:01:16.956Z,35.35
2018-08-23T05:03:47.718Z,38.42
2018-08-23T05:06:18.379Z,36.77
2018-08-23T05:08:49.307Z,36.90
2018-08-23T05:11:20.015Z,36.50
2018-08-23T05:13:50.746Z,35.28
2018-08-23T05:16:21.938Z,34.10
2018-08-23T05:18:52.596Z,32.30
2018-08-23T05:21:23.286Z,38.65
2018-08-23T05:23:58.209Z,41.80
2018-08-23T05:26:28.880Z,39.67
2018-08-23T05:29:02.880Z,39.35
2018-08-23T05:31:34.096Z,35.28
2018-08-23T05:34:07.019Z,39.30
2018-08-23T05:36:37.689Z,41.75
2018-08-23T05:39:09.406Z,41.37
2018-08-23T05:41:40.298Z,43.87
2018-08-23T05:44:20.193Z,43.73
2018-08-23T05:46:56.246Z,46.13
2018-08-23T05:49:27.466Z,47.48
2018-08-23T05:51:59.880Z,40.43
2018-08-23T05:54:30.567Z,43.73
2018-08-23T05:57:01.321Z,46.88
2018-08-23T05:59:32.003Z,43.30
2018-08-23T06:02:02.651Z,45.83
2018-08-23T06:04:40.506Z,45.98
2018-08-23T06:07:11.194Z,53.55
2018-08-23T06:09:42.618Z,51.13
2018-08-23T06:12:13.280Z,51.23
2018-08-23T06:14:43.967Z,47.98
2018-08-23T06:17:14.627Z,45.55
2018-08-23T06:19:45.347Z,45.78
2018-08-23T06:22:16.200Z,53.15
2018-08-23T06:24:46.915Z,55.40
2018-08-23T06:27:17.662Z,46.68
2018-08-23T06:29:48.519Z,53.15
2018-08-23T06:32:19.175Z,58.73
2018-08-23T06:34:51.908Z,52.95
2018-08-23T06:37:23.032Z,60.52
2018-08-23T06:39:53.719Z,62.58
2018-08-23T06:42:45.850Z,55.17
2018-08-23T06:45:16.585Z,59.90
2018-08-23T06:47:50.815Z,53.05
2018-08-23T06:50:26.018Z,52.05
2018-08-23T06:52:56.734Z,56.53
2018-08-23T06:55:32.685Z,62.03
2018-08-23T06:58:04.365Z,58.52
2018-08-23T07:00:35.068Z,53.90
2018-08-23T07:03:05.970Z,49.20
2018-08-23T07:05:36.683Z,50.33
2018-08-23T07:08:07.637Z,52.88
2018-08-23T07:10:38.301Z,49.18
2018-08-23T07:13:09.182Z,64.87
2018-08-23T07:15:43.230Z,61.60
2018-08-23T07:18:18.646Z,56.73
2018-08-23T07:20:49.363Z,53.25
2018-08-23T07:23:30.293Z,53.23
2018-08-23T07:26:00.987Z,52.62
2018-08-23T07:28:32.746Z,60.58
2018-08-23T07:31:03.446Z,58.42
2018-08-23T07:33:35.311Z,61.63
2018-08-23T07:36:18.311Z,58.50
2018-08-23T07:38:49.470Z,60.40
2018-08-23T07:41:20.166Z,60.92
2018-08-23T07:43:50.818Z,66.00
2018-08-23T07:46:21.494Z,61.50
2018-08-23T07:48:52.174Z,59.18
2018-08-23T07:51:25.559Z,63.95
2018-08-23T07:54:00.691Z,63.63
2018-08-23T07:56:31.407Z,61.70
2018-08-23T07:59:02.071Z,61.00
2018-08-23T08:01:32.839Z,55.30
2018-08-23T08:04:03.888Z,55.78
2018-08-23T08:06:34.540Z,55.60
2018-08-23T08:09:08.778Z,53.58
2018-08-23T08:11:49.036Z,52.53
2018-08-23T08:14:25.220Z,59.80
2018-08-23T08:17:04.835Z,57.43
2018-08-23T08:19:39.442Z,58.13
2018-08-23T08:22:10.111Z,58.33
2018-08-23T08:24:40.685Z,46.50
2018-08-23T08:27:11.250Z,47.47
2018-08-23T08:29:42.096Z,57.85
2018-08-23T08:32:12.486Z,43.60
2018-08-23T08:34:44.208Z,51.13
2018-08-23T08:37:14.574Z,44.30
2018-08-23T08:39:44.976Z,51.37
2018-08-23T08:42:15.942Z,38.87
2018-08-23T08:44:46.347Z,37.00
2018-08-23T08:47:16.726Z,28.40
2018-08-23T08:49:47.127Z,23.77
2018-08-23T08:52:17.507Z,28.60
2018-08-23T08:54:47.927Z,22.53
2018-08-23T08:57:18.713Z,24.17
2018-08-23T08:59:49.259Z,27.57
2018-08-23T09:02:19.651Z,31.77
2018-08-23T09:04:50.084Z,30.80
2018-08-23T09:07:23.477Z,28.73
2018-08-23T09:09:54.028Z,29.37
2018-08-23T09:12:24.602Z,26.23
2018-08-23T09:14:55.002Z,23.13
2018-08-23T09:17:38.269Z,31.03
2018-08-23T09:20:12.517Z,26.83
2018-08-23T09:22:50.803Z,20.67
2018-08-23T09:25:25.797Z,23.77
2018-08-23T09:27:56.230Z,21.63
2018-08-23T09:30:27.722Z,18.27
2018-08-23T09:33:02.346Z,15.70
2018-08-23T09:35:33.450Z,12.70
2018-08-23T09:38:13.636Z,12.70
2018-08-23T09:40:43.994Z,12.83
2018-08-23T09:43:14.426Z,9.93
2018-08-23T09:45:45.318Z,10.47
2018-08-23T09:48:15.818Z,9.70
2018-08-23T09:50:46.322Z,8.83
2018-08-23T09:53:22.097Z,11.93
2018-08-23T09:55:54.314Z,12.13
2018-08-23T09:58:30.254Z,13.07
2018-08-23T10:01:06.039Z,9.70
2018-08-23T10:03:41.682Z,13.10
2018-08-23T10:06:27.338Z,8.07
2018-08-23T10:09:14.468Z,8.80
2018-08-23T10:11:50.518Z,8.53
2018-08-23T10:14:26.590Z,8.50
2018-08-23T10:17:02.439Z,6.40
2018-08-23T10:19:38.277Z,7.10
2018-08-23T10:22:14.062Z,5.50
2018-08-23T10:24:44.442Z,7.33
2018-08-23T10:27:14.802Z,6.10
2018-08-23T10:29:45.191Z,5.77
2018-08-23T10:32:15.620Z,4.53
2018-08-23T10:34:46.122Z,5.70
2018-08-23T10:37:16.516Z,4.67
2018-08-23T10:39:47.047Z,5.47
2018-08-23T10:42:17.677Z,6.57
2018-08-23T10:44:48.033Z,4.67
2018-08-23T10:47:23.883Z,6.70
2018-08-23T10:49:54.734Z,4.27
2018-08-23T10:52:25.171Z,5.50
2018-08-23T10:54:55.522Z,6.00
2018-08-23T10:57:25.894Z,4.80
2018-08-23T10:59:56.286Z,4.50
2018-08-23T11:02:26.664Z,3.50
2018-08-23T11:04:57.054Z,4.80
2018-08-23T11:07:33.815Z,4.47
2018-08-23T11:10:09.606Z,5.73
2018-08-23T11:12:45.322Z,4.27
2018-08-23T11:15:21.187Z,4.43
2018-08-23T11:17:57.003Z,3.17
2018-08-23T11:20:29.527Z,4.13
2018-08-23T11:22:59.920Z,3.73
2018-08-23T11:25:30.513Z,3.87
2018-08-23T11:28:05.096Z,2.80
2018-08-23T11:30:35.671Z,3.07
2018-08-23T11:33:09.823Z,3.73
2018-08-23T11:35:40.210Z,2.97
2018-08-23T11:38:10.606Z,5.87
2018-08-23T11:40:40.991Z,4.10
2018-08-23T11:43:11.734Z,5.80
2018-08-23T11:45:42.158Z,3.83
2018-08-23T11:48:12.501Z,3.97
2018-08-23T11:50:42.880Z,3.50
2018-08-23T11:53:13.316Z,3.23
2018-08-23T11:55:43.987Z,4.00
2018-08-23T11:58:14.358Z,4.63
2018-08-23T12:00:44.743Z,3.63
2018-08-23T12:03:15.130Z,3.40
2018-08-23T12:05:45.502Z,2.60
2018-08-23T12:08:15.937Z,3.00
2018-08-23T12:10:46.317Z,5.27
2018-08-23T12:13:16.894Z,3.10
2018-08-23T12:15:47.238Z,6.43
2018-08-23T12:18:17.646Z,2.57
2018-08-23T12:20:48.001Z,5.23
2018-08-23T12:23:18.396Z,3.60
2018-08-23T12:25:48.785Z,2.50
2018-08-23T12:28:24.847Z,5.47
2018-08-23T12:30:55.215Z,2.40
2018-08-23T12:33:25.591Z,2.13
2018-08-23T12:35:55.971Z,2.30
2018-08-23T12:38:31.751Z,3.47
2018-08-23T12:41:07.545Z,5.60
2018-08-23T12:43:46.462Z,2.57
2018-08-23T12:46:17.546Z,3.23
2018-08-23T12:48:48.442Z,2.63
2018-08-23T12:51:18.790Z,2.33
2018-08-23T12:53:49.159Z,2.87
2018-08-23T12:56:19.722Z,2.50
2018-08-23T12:58:50.514Z,2.37
2018-08-23T13:01:20.918Z,2.40
2018-08-23T13:03:51.523Z,3.23
2018-08-23T13:06:22.075Z,3.10
2018-08-23T13:08:52.778Z,2.83
2018-08-23T13:11:23.150Z,2.77
2018-08-23T13:13:53.494Z,3.93
2018-08-23T13:16:23.870Z,2.83
2018-08-23T13:18:54.239Z,3.00
2018-08-23T13:21:24.623Z,2.47
2018-08-23T13:23:55.007Z,3.93
2018-08-23T13:26:29.611Z,5.07
2018-08-23T13:28:59.954Z,3.40
2018-08-23T13:31:30.343Z,3.10
2018-08-23T13:34:01.096Z,2.67
2018-08-23T13:36:31.507Z,3.40
2018-08-23T13:39:02.083Z,4.17
2018-08-23T13:41:32.456Z,2.97
2018-08-23T13:44:02.891Z,3.97
2018-08-23T13:46:33.612Z,3.33
2018-08-23T13:49:04.002Z,3.00
2018-08-23T13:51:34.366Z,3.87
2018-08-23T13:54:04.724Z,5.30
2018-08-23T13:56:35.095Z,5.17
2018-08-23T13:59:05.918Z,4.53
2018-08-23T14:01:36.382Z,3.03
2018-08-23T14:04:07.090Z,5.30
2018-08-23T14:06:37.459Z,7.60
2018-08-23T14:09:07.834Z,3.80
2018-08-23T14:11:38.942Z,5.07
2018-08-23T14:14:09.330Z,4.27
2018-08-23T14:16:39.710Z,4.40
2018-08-23T14:19:10.125Z,7.57
2018-08-23T14:21:40.666Z,4.97
2018-08-23T14:24:11.051Z,5.57
2018-08-23T14:26:41.415Z,5.30
2018-08-23T14:29:11.807Z,7.37
2018-08-23T14:31:42.155Z,6.30
2018-08-23T14:34:12.550Z,5.43
2018-08-23T14:36:42.935Z,4.73
2018-08-23T14:39:13.302Z,8.40
2018-08-23T14:41:43.660Z,5.93
2018-08-23T14:44:14.080Z,4.57
2018-08-23T14:46:50.075Z,7.70
2018-08-23T14:49:25.951Z,12.77
2018-08-23T14:51:56.330Z,7.43
2018-08-23T14:54:32.207Z,7.80
2018-08-23T14:57:08.031Z,10.30
2018-08-23T14:59:38.450Z,6.93
2018-08-23T15:02:09.089Z,7.53
2018-08-23T15:04:39.883Z,6.73
2018-08-23T15:07:10.275Z,8.10
2018-08-23T15:09:40.871Z,7.07
2018-08-23T15:12:11.402Z,5.50
2018-08-23T15:14:41.779Z,4.97
2018-08-23T15:17:12.158Z,9.60
2018-08-23T15:19:42.530Z,7.03
2018-08-23T15:22:13.110Z,10.13
2018-08-23T15:24:43.450Z,7.70
2018-08-23T15:27:13.886Z,8.73
2018-08-23T15:29:44.407Z,7.97
2018-08-23T15:32:14.994Z,8.57
2018-08-23T15:34:45.370Z,8.63
2018-08-23T15:37:15.742Z,7.10
2018-08-23T15:39:46.107Z,7.10
2018-08-23T15:42:16.529Z,7.87
2018-08-23T15:44:46.937Z,7.83
2018-08-23T15:47:17.359Z,7.53
2018-08-23T15:49:47.774Z,9.10
2018-08-23T15:52:18.138Z,8.23
2018-08-23T15:54:48.568Z,7.30
2018-08-23T15:57:19.095Z,8.17
2018-08-23T15:59:49.510Z,10.27
2018-08-23T16:02:19.864Z,8.43
2018-08-23T16:04:50.235Z,6.90
2018-08-23T16:07:20.606Z,11.37
2018-08-23T16:09:51.403Z,6.93
2018-08-23T16:15:22.871Z,8.00
2018-08-23T16:17:58.459Z,7.60
2018-08-23T16:20:34.287Z,9.93
2018-08-23T16:23:05.121Z,13.93
2018-08-23T16:25:43.215Z,6.33
2018-08-23T16:28:13.566Z,12.90
2018-08-23T16:30:44.596Z,8.23
2018-08-23T16:33:14.954Z,11.97
2018-08-23T16:35:45.362Z,10.03
2018-08-23T16:38:15.715Z,10.37
2018-08-23T16:40:46.132Z,9.80
2018-08-23T16:43:16.535Z,9.23
2018-08-23T16:45:47.098Z,12.20
2018-08-23T16:48:17.496Z,6.77
2018-08-23T16:50:47.839Z,7.73
2018-08-23T16:53:18.241Z,7.20
2018-08-23T16:55:48.767Z,8.60
2018-08-23T16:58:20.359Z,12.07
2018-08-23T17:00:50.710Z,14.13
2018-08-23T17:03:21.122Z,9.10
2018-08-23T17:05:51.538Z,16.20
2018-08-23T17:08:21.933Z,10.40
2018-08-23T17:10:52.446Z,8.03
2018-08-23T17:13:28.103Z,6.80
2018-08-23T17:16:03.999Z,6.43
2018-08-23T17:18:34.857Z,10.83
2018-08-23T17:21:05.358Z,6.40
2018-08-23T17:23:35.770Z,6.53
2018-08-23T17:26:06.131Z,13.03
2018-08-23T17:28:36.554Z,11.47
2018-08-23T17:31:06.978Z,11.23
2018-08-23T17:33:37.407Z,8.33
2018-08-23T17:36:07.843Z,9.90
2018-08-23T17:38:38.234Z,9.40
2018-08-23T17:41:08.657Z,8.87
2018-08-23T17:43:39.020Z,10.50
2018-08-23T17:46:09.435Z,10.87
2018-08-23T17:48:39.806Z,7.83
2018-08-23T17:51:10.202Z,10.03
2018-08-23T17:53:40.778Z,6.97
2018-08-23T17:56:11.165Z,6.20
2018-08-23T17:58:41.607Z,9.67
2018-08-23T18:01:12.019Z,7.87
2018-08-23T18:03:43.011Z,8.83
2018-08-23T18:06:13.601Z,8.57
2018-08-23T18:08:44.128Z,5.87
2018-08-23T18:11:14.489Z,7.73
2018-08-23T18:13:44.913Z,6.27
2018-08-23T18:16:20.615Z,6.73
2018-08-23T18:18:51.020Z,7.90
2018-08-23T18:21:21.378Z,7.40
2018-08-23T18:23:51.854Z,7.40
2018-08-23T18:26:22.427Z,5.60
2018-08-23T18:28:52.835Z,6.53
2018-08-23T18:31:23.208Z,5.33
2018-08-23T18:33:53.591Z,6.73
2018-08-23T18:36:23.975Z,8.03
2018-08-23T18:38:56.171Z,5.87
2018-08-23T18:41:31.053Z,5.13
2018-08-23T18:44:06.506Z,5.07
2018-08-23T18:46:42.813Z,5.13
2018-08-23T18:49:16.353Z,6.20
2018-08-23T18:51:51.568Z,5.97
2018-08-23T18:54:24.678Z,6.07
2018-08-23T18:56:58.793Z,9.00
2018-08-23T18:59:34.685Z,4.80
2018-08-23T19:02:07.876Z,5.23
2018-08-23T19:04:40.628Z,4.87
2018-08-23T19:07:25.701Z,4.93
2018-08-23T19:10:05.494Z,3.93
2018-08-23T19:12:44.503Z,9.50
2018-08-23T19:15:21.942Z,4.50
2018-08-23T19:17:53.656Z,5.20
2018-08-23T19:20:29.370Z,6.33
2018-08-23T19:23:01.785Z,5.30
2018-08-23T19:25:37.101Z,5.23
2018-08-23T19:28:09.030Z,5.87
2018-08-23T19:30:40.748Z,4.80
2018-08-23T19:33:13.251Z,4.73
2018-08-23T19:35:46.035Z,5.30
2018-08-23T19:38:17.639Z,4.90
2018-08-23T19:40:47.995Z,6.27
2018-08-23T19:43:18.383Z,4.67
2018-08-23T19:45:54.162Z,5.13
2018-08-23T19:48:24.526Z,5.43
2018-08-23T19:50:54.926Z,5.20
2018-08-23T19:53:25.295Z,3.80
2018-08-23T19:55:55.675Z,5.43
2018-08-23T19:58:26.091Z,5.07
2018-08-23T20:00:56.507Z,4.10
2018-08-23T20:03:33.615Z,6.70
2018-08-23T20:06:04.344Z,4.57
2018-08-23T20:08:34.703Z,7.23
2018-08-23T20:11:05.131Z,4.10
2018-08-23T20:16:12.326Z,7.83
2018-08-23T20:18:42.666Z,4.23
2018-08-23T20:21:13.059Z,5.00
2018-08-23T20:23:43.587Z,3.73
2018-08-23T20:26:14.207Z,6.37
2018-08-23T20:28:44.563Z,5.30
2018-08-23T20:31:14.994Z,5.67
2018-08-23T20:33:45.391Z,6.77
2018-08-23T20:36:15.754Z,6.53
2018-08-23T20:38:46.170Z,6.23
2018-08-23T20:41:16.574Z,7.33
2018-08-23T20:43:47.110Z,4.70
2018-08-23T20:46:17.512Z,5.90
2018-08-23T20:48:48.111Z,3.43
2018-08-23T20:51:18.519Z,4.63
2018-08-23T20:53:48.901Z,5.13
2018-08-23T20:56:19.307Z,3.80
2018-08-23T20:58:49.659Z,4.67
2018-08-23T21:01:20.067Z,4.07
2018-08-23T21:03:50.504Z,4.80
2018-08-23T21:06:21.018Z,5.60
2018-08-23T21:08:51.358Z,4.30
2018-08-23T21:11:22.178Z,3.67
2018-08-23T21:13:53.581Z,5.60
2018-08-23T21:16:24.243Z,5.50
2018-08-23T21:18:54.629Z,5.50
2018-08-23T21:21:25.010Z,6.37
2018-08-23T21:23:55.362Z,3.67
2018-08-23T21:26:25.764Z,3.20
2018-08-23T21:28:56.231Z,3.13
2018-08-23T21:31:26.610Z,4.07
2018-08-23T21:33:56.986Z,3.77
2018-08-23T21:36:27.470Z,4.40
2018-08-23T21:38:58.702Z,3.33
2018-08-23T21:41:29.046Z,3.03
2018-08-23T21:43:59.444Z,3.20
2018-08-23T21:46:29.794Z,3.43
2018-08-23T21:49:00.174Z,3.27
2018-08-23T21:51:30.531Z,2.93
2018-08-23T21:54:00.923Z,3.80
2018-08-23T21:56:31.311Z,6.03
2018-08-23T21:59:01.872Z,3.60
2018-08-23T22:01:32.414Z,4.60
2018-08-23T22:04:02.946Z,4.13
2018-08-23T22:06:33.339Z,3.10
2018-08-23T22:09:06.128Z,6.20
2018-08-23T22:11:36.550Z,3.20
2018-08-23T22:14:07.334Z,3.97
2018-08-23T22:16:38.083Z,5.10
2018-08-23T22:19:08.426Z,3.80
2018-08-23T22:21:38.830Z,3.27
2018-08-23T22:24:09.199Z,2.90
2018-08-23T22:26:39.671Z,3.53
2018-08-23T22:29:10.118Z,4.37
2018-08-23T22:31:40.498Z,3.93
2018-08-23T22:34:10.847Z,4.47
2018-08-23T22:36:41.230Z,4.90
2018-08-23T22:39:11.588Z,4.27
2018-08-23T22:41:42.003Z,4.10
2018-08-23T22:44:15.392Z,5.63
2018-08-23T22:46:46.756Z,4.10
2018-08-23T22:49:17.122Z,5.13
2018-08-23T22:51:47.881Z,4.20
2018-08-23T22:54:18.238Z,3.47
2018-08-23T22:56:48.631Z,7.03
2018-08-23T22:59:19.027Z,7.03
2018-08-23T23:01:49.462Z,7.27
2018-08-23T23:04:25.271Z,9.50
2018-08-23T23:06:56.353Z,5.87
2018-08-23T23:09:26.743Z,6.90
2018-08-23T23:11:57.154Z,5.00
2018-08-23T23:14:27.548Z,5.80
2018-08-23T23:16:57.932Z,6.30
2018-08-23T23:19:28.323Z,3.93
2018-08-23T23:21:58.699Z,5.47
2018-08-23T23:24:34.547Z,4.40
2018-08-23T23:27:04.907Z,4.00
2018-08-23T23:29:35.306Z,4.40
2018-08-23T23:32:05.907Z,3.87
2018-08-23T23:34:36.284Z,3.70
2018-08-23T23:37:06.647Z,4.17
2018-08-23T23:39:37.035Z,3.90
2018-08-23T23:42:07.516Z,4.17
2018-08-23T23:44:38.036Z,4.00
2018-08-23T23:47:08.563Z,5.17
2018-08-23T23:49:39.215Z,6.42
2018-08-23T23:52:10.074Z,5.30
2018-08-23T23:54:40.454Z,5.17
2018-08-23T23:57:11.143Z,4.85
2018-08-23T23:59:41.779Z,4.47
